sensor_id;sensor_type;location;lat;lon;timestamp;pressure;altitude;pressure_sealevel;temperature;humidity
48964;BME280;34776;48.180;16.420;2024-01-30T00:01:55;101743.06;;;1.71;72.71
48964;BME280;34776;48.180;16.420;2024-01-30T00:04:33;101744.00;;;1.76;73.07
48964;BME280;34776;48.180;16.420;2024-01-30T00:06:59;101742.31;;;1.78;72.85
48964;BME280;34776;48.180;16.420;2024-01-30T00:09:24;101746.59;;;1.73;72.73
48964;BME280;34776;48.180;16.420;2024-01-30T00:11:49;101740.41;;;1.68;72.47
48964;BME280;34776;48.180;16.420;2024-01-30T00:14:17;101736.91;;;1.66;72.31
48964;BME280;34776;48.180;16.420;2024-01-30T00:16:42;101736.81;;;1.63;72.24
48964;BME280;34776;48.180;16.420;2024-01-30T00:19:08;101731.53;;;1.60;72.34
48964;BME280;34776;48.180;16.420;2024-01-30T00:21:33;101729.72;;;1.56;72.47
48964;BME280;34776;48.180;16.420;2024-01-30T00:24:00;101729.72;;;1.56;72.29
48964;BME280;34776;48.180;16.420;2024-01-30T00:26:25;101731.44;;;1.54;72.45
48964;BME280;34776;48.180;16.420;2024-01-30T00:28:51;101729.66;;;1.53;72.45
48964;BME280;34776;48.180;16.420;2024-01-30T00:31:17;101731.38;;;1.51;72.64
48964;BME280;34776;48.180;16.420;2024-01-30T00:33:43;101740.94;;;1.49;72.73
48964;BME280;34776;48.180;16.420;2024-01-30T00:36:09;101736.59;;;1.48;72.85
48964;BME280;34776;48.180;16.420;2024-01-30T00:38:35;101736.50;;;1.45;72.68
48964;BME280;34776;48.180;16.420;2024-01-30T00:41:02;101734.72;;;1.42;72.82
48964;BME280;34776;48.180;16.420;2024-01-30T00:43:29;101739.94;;;1.40;73.04
48964;BME280;34776;48.180;16.420;2024-01-30T00:45:55;101737.34;;;1.42;72.98
48964;BME280;34776;48.180;16.420;2024-01-30T00:48:22;101747.81;;;1.42;73.03
48964;BME280;34776;48.180;16.420;2024-01-30T00:50:48;101753.91;;;1.39;72.87
48964;BME280;34776;48.180;16.420;2024-01-30T00:53:13;101754.75;;;1.37;72.90
48964;BME280;34776;48.180;16.420;2024-01-30T00:55:39;101740.72;;;1.35;72.70
48964;BME280;34776;48.180;16.420;2024-01-30T00:58:04;101737.16;;;1.31;72.76
48964;BME280;34776;48.180;16.420;2024-01-30T01:00:30;101732.72;;;1.27;72.83
48964;BME280;34776;48.180;16.420;2024-01-30T01:02:57;101736.22;;;1.26;72.63
48964;BME280;34776;48.180;16.420;2024-01-30T01:05:26;101732.69;;;1.24;73.19
48964;BME280;34776;48.180;16.420;2024-01-30T01:07:55;101725.75;;;1.26;73.64
48964;BME280;34776;48.180;16.420;2024-01-30T01:10:21;101728.38;;;1.26;73.43
48964;BME280;34776;48.180;16.420;2024-01-30T01:12:47;101728.41;;;1.29;73.82
48964;BME280;34776;48.180;16.420;2024-01-30T01:15:13;101723.19;;;1.32;74.06
48964;BME280;34776;48.180;16.420;2024-01-30T01:17:39;101718.06;;;1.37;74.20
48964;BME280;34776;48.180;16.420;2024-01-30T01:20:06;101715.41;;;1.35;74.24
48964;BME280;34776;48.180;16.420;2024-01-30T01:22:34;101713.63;;;1.34;73.92
48964;BME280;34776;48.180;16.420;2024-01-30T01:25:00;101716.25;;;1.33;73.92
48964;BME280;34776;48.180;16.420;2024-01-30T01:27:27;101712.69;;;1.29;73.69
48964;BME280;34776;48.180;16.420;2024-01-30T01:29:52;101706.53;;;1.27;73.62
48964;BME280;34776;48.180;16.420;2024-01-30T01:32:18;101708.25;;;1.25;73.77
48964;BME280;34776;48.180;16.420;2024-01-30T01:34:44;101712.56;;;1.23;73.65
48964;BME280;34776;48.180;16.420;2024-01-30T01:37:09;101708.19;;;1.20;73.52
48964;BME280;34776;48.180;16.420;2024-01-30T01:39:34;101704.63;;;1.17;73.60
48964;BME280;34776;48.180;16.420;2024-01-30T01:42:00;101709.81;;;1.14;73.48
48964;BME280;34776;48.180;16.420;2024-01-30T01:44:25;101701.91;;;1.12;73.53
48964;BME280;34776;48.180;16.420;2024-01-30T01:46:51;101702.78;;;1.13;73.76
48964;BME280;34776;48.180;16.420;2024-01-30T01:49:19;101699.25;;;1.11;73.64
48964;BME280;34776;48.180;16.420;2024-01-30T01:51:47;101695.75;;;1.09;73.87
48964;BME280;34776;48.180;16.420;2024-01-30T01:54:14;101696.66;;;1.11;74.17
48964;BME280;34776;48.180;16.420;2024-01-30T01:56:42;101702.75;;;1.10;74.11
48964;BME280;34776;48.180;16.420;2024-01-30T01:59:08;101694.03;;;1.11;73.93
48964;BME280;34776;48.180;16.420;2024-01-30T02:01:38;101691.41;;;1.09;73.92
48964;BME280;34776;48.180;16.420;2024-01-30T02:04:06;101685.25;;;1.09;74.19
48964;BME280;34776;48.180;16.420;2024-01-30T02:06:34;101694.00;;;1.08;74.05
48964;BME280;34776;48.180;16.420;2024-01-30T02:09:00;101692.22;;;1.07;74.20
48964;BME280;34776;48.180;16.420;2024-01-30T02:11:27;101694.81;;;1.05;73.94
48964;BME280;34776;48.180;16.420;2024-01-30T02:13:53;101688.69;;;1.05;74.27
48964;BME280;34776;48.180;16.420;2024-01-30T02:16:21;101693.09;;;1.06;74.25
48964;BME280;34776;48.180;16.420;2024-01-30T02:18:48;101693.09;;;1.06;74.36
48964;BME280;34776;48.180;16.420;2024-01-30T02:21:17;101689.59;;;1.05;74.54
48964;BME280;34776;48.180;16.420;2024-01-30T02:23:44;101687.84;;;1.06;74.49
48964;BME280;34776;48.180;16.420;2024-01-30T02:26:13;101688.72;;;1.06;74.87
48964;BME280;34776;48.180;16.420;2024-01-30T02:28:38;101682.66;;;1.09;74.96
48964;BME280;34776;48.180;16.420;2024-01-30T02:31:04;101674.78;;;1.09;75.11
48964;BME280;34776;48.180;16.420;2024-01-30T02:33:30;101680.94;;;1.09;74.96
48964;BME280;34776;48.180;16.420;2024-01-30T02:35:55;101676.56;;;1.10;74.96
48964;BME280;34776;48.180;16.420;2024-01-30T02:38:20;101679.19;;;1.11;75.02
48964;BME280;34776;48.180;16.420;2024-01-30T02:40:46;101678.31;;;1.11;74.86
48964;BME280;34776;48.180;16.420;2024-01-30T02:43:15;101673.97;;;1.11;75.18
48964;BME280;34776;48.180;16.420;2024-01-30T02:45:42;101680.09;;;1.12;74.95
48964;BME280;34776;48.180;16.420;2024-01-30T02:48:09;101680.09;;;1.12;74.96
48964;BME280;34776;48.180;16.420;2024-01-30T02:50:34;101680.09;;;1.12;75.07
48964;BME280;34776;48.180;16.420;2024-01-30T02:53:01;101680.06;;;1.10;75.20
48964;BME280;34776;48.180;16.420;2024-01-30T02:55:27;101688.78;;;1.11;75.30
48964;BME280;34776;48.180;16.420;2024-01-30T02:57:54;101687.91;;;1.10;75.35
48964;BME280;34776;48.180;16.420;2024-01-30T03:00:20;101684.44;;;1.11;75.29
48964;BME280;34776;48.180;16.420;2024-01-30T03:02:46;101685.34;;;1.12;75.25
48964;BME280;34776;48.180;16.420;2024-01-30T03:05:13;101684.44;;;1.11;75.03
48964;BME280;34776;48.180;16.420;2024-01-30T03:07:38;101675.69;;;1.09;75.22
48964;BME280;34776;48.180;16.420;2024-01-30T03:10:05;101676.56;;;1.10;75.39
48964;BME280;34776;48.180;16.420;2024-01-30T03:12:35;101679.19;;;1.10;75.44
48964;BME280;34776;48.180;16.420;2024-01-30T03:15:01;101676.56;;;1.10;75.11
48964;BME280;34776;48.180;16.420;2024-01-30T03:17:26;101675.69;;;1.09;75.24
48964;BME280;34776;48.180;16.420;2024-01-30T03:19:54;101666.09;;;1.10;75.14
48964;BME280;34776;48.180;16.420;2024-01-30T03:22:19;101669.56;;;1.07;75.41
48964;BME280;34776;48.180;16.420;2024-01-30T03:24:45;101662.50;;;1.05;75.38
48964;BME280;34776;48.180;16.420;2024-01-30T03:27:11;101662.50;;;1.05;75.39
48964;BME280;34776;48.180;16.420;2024-01-30T03:29:36;101674.69;;;1.02;75.32
48964;BME280;34776;48.180;16.420;2024-01-30T03:32:02;101665.09;;;1.01;75.35
48964;BME280;34776;48.180;16.420;2024-01-30T03:34:30;101665.03;;;1.00;75.18
48964;BME280;34776;48.180;16.420;2024-01-30T03:36:55;101661.53;;;0.98;75.30
48964;BME280;34776;48.180;16.420;2024-01-30T03:39:23;101664.97;;;0.95;75.29
48964;BME280;34776;48.180;16.420;2024-01-30T03:41:49;101664.94;;;0.94;75.23
48964;BME280;34776;48.180;16.420;2024-01-30T03:44:14;101662.28;;;0.92;75.24
48964;BME280;34776;48.180;16.420;2024-01-30T03:46:39;101660.47;;;0.88;75.64
48964;BME280;34776;48.180;16.420;2024-01-30T03:49:05;101669.19;;;0.87;75.71
48964;BME280;34776;48.180;16.420;2024-01-30T03:51:30;101664.78;;;0.85;76.58
48964;BME280;34776;48.180;16.420;2024-01-30T03:53:55;101658.69;;;0.84;76.55
48964;BME280;34776;48.180;16.420;2024-01-30T03:56:21;101674.38;;;0.84;76.74
48964;BME280;34776;48.180;16.420;2024-01-30T03:58:46;101665.66;;;0.85;76.83
48964;BME280;34776;48.180;16.420;2024-01-30T04:01:14;101665.66;;;0.85;76.66
48964;BME280;34776;48.180;16.420;2024-01-30T04:03:42;101666.53;;;0.84;76.79
48964;BME280;34776;48.180;16.420;2024-01-30T04:06:09;101670.84;;;0.84;76.77
48964;BME280;34776;48.180;16.420;2024-01-30T04:08:34;101665.63;;;0.82;77.13
48964;BME280;34776;48.180;16.420;2024-01-30T04:11:06;101671.72;;;0.83;76.79
48964;BME280;34776;48.180;16.420;2024-01-30T04:13:34;101665.63;;;0.82;76.95
48964;BME280;34776;48.180;16.420;2024-01-30T04:16:02;101670.78;;;0.79;77.17
48964;BME280;34776;48.180;16.420;2024-01-30T04:18:29;101663.84;;;0.81;77.33
48964;BME280;34776;48.180;16.420;2024-01-30T04:20:55;101669.91;;;0.78;77.37
48964;BME280;34776;48.180;16.420;2024-01-30T04:23:20;101672.47;;;0.77;77.19
48964;BME280;34776;48.180;16.420;2024-01-30T04:25:46;101672.47;;;0.77;77.35
48964;BME280;34776;48.180;16.420;2024-01-30T04:28:11;101670.78;;;0.79;77.32
48964;BME280;34776;48.180;16.420;2024-01-30T04:30:38;101668.16;;;0.79;77.15
48964;BME280;34776;48.180;16.420;2024-01-30T04:33:03;101669.88;;;0.77;77.24
48964;BME280;34776;48.180;16.420;2024-01-30T04:35:29;101665.50;;;0.76;77.08
48964;BME280;34776;48.180;16.420;2024-01-30T04:37:54;101665.50;;;0.76;77.20
48964;BME280;34776;48.180;16.420;2024-01-30T04:40:20;101668.94;;;0.75;77.16
48964;BME280;34776;48.180;16.420;2024-01-30T04:42:46;101670.66;;;0.73;77.33
48964;BME280;34776;48.180;16.420;2024-01-30T04:45:12;101671.53;;;0.73;77.50
48964;BME280;34776;48.180;16.420;2024-01-30T04:47:37;101665.44;;;0.73;77.40
48964;BME280;34776;48.180;16.420;2024-01-30T04:50:04;101665.44;;;0.73;77.66
48964;BME280;34776;48.180;16.420;2024-01-30T04:52:30;101670.63;;;0.71;77.63
48964;BME280;34776;48.180;16.420;2024-01-30T04:54:55;101672.38;;;0.71;77.67
48964;BME280;34776;48.180;16.420;2024-01-30T04:57:20;101672.31;;;0.68;78.07
48964;BME280;34776;48.180;16.420;2024-01-30T04:59:48;101678.44;;;0.68;77.90
48964;BME280;34776;48.180;16.420;2024-01-30T05:02:15;101674.06;;;0.69;77.64
48964;BME280;34776;48.180;16.420;2024-01-30T05:04:40;101674.06;;;0.69;77.54
48964;BME280;34776;48.180;16.420;2024-01-30T05:07:06;101672.31;;;0.69;77.42
48964;BME280;34776;48.180;16.420;2024-01-30T05:09:32;101677.56;;;0.68;77.50
48964;BME280;34776;48.180;16.420;2024-01-30T05:11:57;101665.31;;;0.67;77.52
48964;BME280;34776;48.180;16.420;2024-01-30T05:14:23;101672.25;;;0.63;77.99
48964;BME280;34776;48.180;16.420;2024-01-30T05:16:48;101669.63;;;0.63;77.79
48964;BME280;34776;48.180;16.420;2024-01-30T05:19:14;101675.72;;;0.64;77.90
48964;BME280;34776;48.180;16.420;2024-01-30T05:21:39;101667.81;;;0.60;77.99
48964;BME280;34776;48.180;16.420;2024-01-30T05:24:06;101673.91;;;0.59;78.07
48964;BME280;34776;48.180;16.420;2024-01-30T05:26:33;101677.34;;;0.58;78.26
48964;BME280;34776;48.180;16.420;2024-01-30T05:28:58;101681.72;;;0.58;78.21
48964;BME280;34776;48.180;16.420;2024-01-30T05:31:25;101673.00;;;0.57;78.04
48964;BME280;34776;48.180;16.420;2024-01-30T05:33:52;101680.88;;;0.60;77.86
48964;BME280;34776;48.180;16.420;2024-01-30T05:36:17;101680.00;;;0.60;77.91
48964;BME280;34776;48.180;16.420;2024-01-30T05:38:42;101678.22;;;0.57;77.91
48964;BME280;34776;48.180;16.420;2024-01-30T05:41:09;101678.22;;;0.57;77.74
48964;BME280;34776;48.180;16.420;2024-01-30T05:43:34;101676.44;;;0.56;77.95
48964;BME280;34776;48.180;16.420;2024-01-30T05:46:01;101671.22;;;0.55;77.94
48964;BME280;34776;48.180;16.420;2024-01-30T05:48:27;101679.06;;;0.56;77.93
48964;BME280;34776;48.180;16.420;2024-01-30T05:50:52;101681.69;;;0.56;77.98
48964;BME280;34776;48.180;16.420;2024-01-30T05:53:18;101678.16;;;0.54;77.92
48964;BME280;34776;48.180;16.420;2024-01-30T05:55:43;101677.22;;;0.52;77.90
48964;BME280;34776;48.180;16.420;2024-01-30T05:58:09;101673.78;;;0.53;77.92
48964;BME280;34776;48.180;16.420;2024-01-30T06:00:34;101672.00;;;0.51;78.04
48964;BME280;34776;48.180;16.420;2024-01-30T06:03:00;101681.59;;;0.52;78.03
48964;BME280;34776;48.180;16.420;2024-01-30T06:05:25;101684.16;;;0.50;78.08
48964;BME280;34776;48.180;16.420;2024-01-30T06:07:50;101684.16;;;0.50;77.94
48964;BME280;34776;48.180;16.420;2024-01-30T06:10:16;101689.41;;;0.50;78.06
48964;BME280;34776;48.180;16.420;2024-01-30T06:12:41;101691.13;;;0.50;78.16
48964;BME280;34776;48.180;16.420;2024-01-30T06:15:06;101684.16;;;0.50;77.95
48964;BME280;34776;48.180;16.420;2024-01-30T06:17:32;101683.34;;;0.51;78.00
48964;BME280;34776;48.180;16.420;2024-01-30T06:19:58;101688.53;;;0.50;78.22
48964;BME280;34776;48.180;16.420;2024-01-30T06:22:23;101685.91;;;0.50;78.13
48964;BME280;34776;48.180;16.420;2024-01-30T06:24:48;101689.41;;;0.50;77.87
48964;BME280;34776;48.180;16.420;2024-01-30T06:27:14;101696.41;;;0.51;78.05
48964;BME280;34776;48.180;16.420;2024-01-30T06:29:43;101693.84;;;0.53;77.99
48964;BME280;34776;48.180;16.420;2024-01-30T06:32:10;101694.75;;;0.55;77.86
48964;BME280;34776;48.180;16.420;2024-01-30T06:34:35;101695.66;;;0.57;77.85
48964;BME280;34776;48.180;16.420;2024-01-30T06:37:01;101688.78;;;0.62;77.65
48964;BME280;34776;48.180;16.420;2024-01-30T06:39:26;101696.66;;;0.64;77.53
48964;BME280;34776;48.180;16.420;2024-01-30T06:41:52;101700.16;;;0.64;77.56
48964;BME280;34776;48.180;16.420;2024-01-30T06:44:18;101698.47;;;0.68;77.41
48964;BME280;34776;48.180;16.420;2024-01-30T06:46:43;101696.78;;;0.70;77.50
48964;BME280;34776;48.180;16.420;2024-01-30T06:49:09;101698.59;;;0.74;77.44
48964;BME280;34776;48.180;16.420;2024-01-30T06:51:34;101703.03;;;0.78;77.49
48964;BME280;34776;48.180;16.420;2024-01-30T06:54:01;101705.72;;;0.81;77.34
48964;BME280;34776;48.180;16.420;2024-01-30T06:56:26;101709.31;;;0.86;77.19
48964;BME280;34776;48.180;16.420;2024-01-30T06:58:52;101704.09;;;0.88;77.09
48964;BME280;34776;48.180;16.420;2024-01-30T07:01:18;101718.13;;;0.91;77.00
48964;BME280;34776;48.180;16.420;2024-01-30T07:03:43;101712.88;;;0.91;76.93
48964;BME280;34776;48.180;16.420;2024-01-30T07:06:09;101718.22;;;0.97;76.94
48964;BME280;34776;48.180;16.420;2024-01-30T07:08:36;101718.28;;;1.00;76.93
48964;BME280;34776;48.180;16.420;2024-01-30T07:11:02;101712.25;;;1.03;77.01
48964;BME280;34776;48.180;16.420;2024-01-30T07:13:28;101716.66;;;1.06;76.88
48964;BME280;34776;48.180;16.420;2024-01-30T07:15:53;101725.44;;;1.11;76.82
48964;BME280;34776;48.180;16.420;2024-01-30T07:18:19;101721.16;;;1.14;76.88
48964;BME280;34776;48.180;16.420;2024-01-30T07:20:44;101729.97;;;1.19;76.82
48964;BME280;34776;48.180;16.420;2024-01-30T07:23:15;101733.56;;;1.25;76.85
48964;BME280;34776;48.180;16.420;2024-01-30T07:25:45;101734.59;;;1.34;76.77
48964;BME280;34776;48.180;16.420;2024-01-30T07:28:11;101727.75;;;1.41;76.36
48964;BME280;34776;48.180;16.420;2024-01-30T07:30:38;101729.56;;;1.47;76.24
48964;BME280;34776;48.180;16.420;2024-01-30T07:33:03;101739.22;;;1.51;76.22
48964;BME280;34776;48.180;16.420;2024-01-30T07:35:29;101738.44;;;1.55;76.18
48964;BME280;34776;48.180;16.420;2024-01-30T07:37:54;101735.06;;;1.62;76.04
48964;BME280;34776;48.180;16.420;2024-01-30T07:40:23;101740.44;;;1.71;76.15
48964;BME280;34776;48.180;16.420;2024-01-30T07:42:49;101741.50;;;1.81;75.66
48964;BME280;34776;48.180;16.420;2024-01-30T07:45:15;101732.81;;;1.85;75.56
48964;BME280;34776;48.180;16.420;2024-01-30T07:47:40;101732.03;;;1.92;75.51
48964;BME280;34776;48.180;16.420;2024-01-30T07:50:07;101732.16;;;2.00;75.16
48964;BME280;34776;48.180;16.420;2024-01-30T07:52:33;101729.53;;;2.00;75.17
48964;BME280;34776;48.180;16.420;2024-01-30T07:58:10;101721.84;;;2.12;75.26
48964;BME280;34776;48.180;16.420;2024-01-30T08:00:36;101722.84;;;2.22;74.94
48964;BME280;34776;48.180;16.420;2024-01-30T08:03:02;101724.72;;;2.31;74.89
48964;BME280;34776;48.180;16.420;2024-01-30T08:05:28;101736.19;;;2.39;74.62
48964;BME280;34776;48.180;16.420;2024-01-30T08:07:53;101731.09;;;2.51;74.49
48964;BME280;34776;48.180;16.420;2024-01-30T08:10:20;101736.47;;;2.60;74.23
48964;BME280;34776;48.180;16.420;2024-01-30T08:12:45;101740.91;;;2.66;74.07
48964;BME280;34776;48.180;16.420;2024-01-30T08:15:11;101733.06;;;2.68;73.93
48964;BME280;34776;48.180;16.420;2024-01-30T08:17:37;101738.41;;;2.77;73.87
48964;BME280;34776;48.180;16.420;2024-01-30T08:20:03;101741.16;;;2.88;73.77
48964;BME280;34776;48.180;16.420;2024-01-30T08:22:30;101741.25;;;2.95;73.48
48964;BME280;34776;48.180;16.420;2024-01-30T08:24:55;101739.59;;;3.03;73.28
48964;BME280;34776;48.180;16.420;2024-01-30T08:27:20;101738.78;;;3.11;73.15
48964;BME280;34776;48.180;16.420;2024-01-30T08:29:46;101738.03;;;3.22;72.92
48964;BME280;34776;48.180;16.420;2024-01-30T08:32:11;101737.28;;;3.37;72.83
48964;BME280;34776;48.180;16.420;2024-01-30T08:34:36;101737.56;;;3.68;73.24
48964;BME280;34776;48.180;16.420;2024-01-30T08:37:02;101734.78;;;5.20;73.28
48964;BME280;34776;48.180;16.420;2024-01-30T08:39:28;101728.47;;;6.59;70.76
48964;BME280;34776;48.180;16.420;2024-01-30T08:41:53;101730.00;;;7.08;68.92
48964;BME280;34776;48.180;16.420;2024-01-30T08:44:20;101732.66;;;7.03;68.02
48964;BME280;34776;48.180;16.420;2024-01-30T08:46:46;101734.00;;;7.64;66.23
48964;BME280;34776;48.180;16.420;2024-01-30T08:49:11;101734.91;;;9.18;64.51
48964;BME280;34776;48.180;16.420;2024-01-30T08:51:39;101726.47;;;11.29;60.50
48964;BME280;34776;48.180;16.420;2024-01-30T08:54:05;101721.06;;;12.98;56.99
48964;BME280;34776;48.180;16.420;2024-01-30T08:56:30;101723.03;;;14.26;54.51
48964;BME280;34776;48.180;16.420;2024-01-30T08:58:55;101722.00;;;15.01;53.31
48964;BME280;34776;48.180;16.420;2024-01-30T09:01:21;101720.53;;;15.82;51.74
48964;BME280;34776;48.180;16.420;2024-01-30T09:03:46;101714.22;;;16.44;50.54
48964;BME280;34776;48.180;16.420;2024-01-30T09:06:12;101718.00;;;16.59;49.97
48964;BME280;34776;48.180;16.420;2024-01-30T09:08:38;101720.44;;;16.84;49.28
48964;BME280;34776;48.180;16.420;2024-01-30T09:11:09;101723.25;;;16.81;45.63
48964;BME280;34776;48.180;16.420;2024-01-30T09:13:35;101712.94;;;16.72;45.76
48964;BME280;34776;48.180;16.420;2024-01-30T09:16:01;101709.72;;;16.64;46.56
48964;BME280;34776;48.180;16.420;2024-01-30T09:18:26;101706.69;;;16.53;44.97
48964;BME280;34776;48.180;16.420;2024-01-30T09:20:51;101715.94;;;16.46;46.35
48964;BME280;34776;48.180;16.420;2024-01-30T09:23:17;101714.91;;;16.48;45.10
48964;BME280;34776;48.180;16.420;2024-01-30T09:25:44;101720.25;;;16.29;43.95
48964;BME280;34776;48.180;16.420;2024-01-30T09:28:10;101720.94;;;16.14;44.79
48964;BME280;34776;48.180;16.420;2024-01-30T09:30:36;101720.28;;;15.88;44.46
48964;BME280;34776;48.180;16.420;2024-01-30T09:33:01;101735.75;;;15.59;43.92
48964;BME280;34776;48.180;16.420;2024-01-30T09:35:26;101728.53;;;15.39;45.18
48964;BME280;34776;48.180;16.420;2024-01-30T09:37:52;101726.28;;;15.29;44.11
48964;BME280;34776;48.180;16.420;2024-01-30T09:40:19;101720.38;;;14.97;45.22
48964;BME280;34776;48.180;16.420;2024-01-30T09:42:50;101727.75;;;14.92;43.13
48964;BME280;34776;48.180;16.420;2024-01-30T09:45:18;101729.91;;;14.33;44.64
48964;BME280;34776;48.180;16.420;2024-01-30T09:47:44;101728.56;;;13.96;46.02
48964;BME280;34776;48.180;16.420;2024-01-30T09:50:15;101729.34;;;13.73;44.91
48964;BME280;34776;48.180;16.420;2024-01-30T09:52:40;101724.69;;;13.24;46.75
48964;BME280;34776;48.180;16.420;2024-01-30T09:55:07;101730.59;;;13.05;46.95
48964;BME280;34776;48.180;16.420;2024-01-30T09:57:36;101721.56;;;13.09;45.81
48964;BME280;34776;48.180;16.420;2024-01-30T10:00:05;101716.50;;;12.41;47.64
48964;BME280;34776;48.180;16.420;2024-01-30T10:02:34;101721.84;;;12.41;46.50
48964;BME280;34776;48.180;16.420;2024-01-30T10:05:00;101719.59;;;11.92;48.20
48964;BME280;34776;48.180;16.420;2024-01-30T10:07:26;101716.84;;;11.97;47.06
48964;BME280;34776;48.180;16.420;2024-01-30T10:09:53;101714.97;;;11.27;48.35
48964;BME280;34776;48.180;16.420;2024-01-30T10:12:18;101719.88;;;11.44;48.43
48964;BME280;34776;48.180;16.420;2024-01-30T10:14:44;101723.72;;;10.95;49.27
48964;BME280;34776;48.180;16.420;2024-01-30T10:17:10;101711.81;;;11.11;48.70
48964;BME280;34776;48.180;16.420;2024-01-30T10:19:38;101711.16;;;11.00;47.75
48964;BME280;34776;48.180;16.420;2024-01-30T10:22:04;101711.38;;;10.50;48.02
48964;BME280;34776;48.180;16.420;2024-01-30T10:24:30;101715.69;;;10.09;48.08
48964;BME280;34776;48.180;16.420;2024-01-30T10:26:55;101708.34;;;9.74;48.45
48964;BME280;34776;48.180;16.420;2024-01-30T10:29:21;101710.63;;;9.44;48.64
48964;BME280;34776;48.180;16.420;2024-01-30T10:32:03;101707.53;;;9.18;48.82
48964;BME280;34776;48.180;16.420;2024-01-30T10:34:29;101704.38;;;8.91;49.46
48964;BME280;34776;48.180;16.420;2024-01-30T10:37:09;101702.81;;;8.74;50.65
48964;BME280;34776;48.180;16.420;2024-01-30T10:39:40;101704.56;;;8.76;50.69
48964;BME280;34776;48.180;16.420;2024-01-30T10:42:07;101695.66;;;8.81;50.41
48964;BME280;34776;48.180;16.420;2024-01-30T10:45:12;101699.31;;;8.72;50.15
48964;BME280;34776;48.180;16.420;2024-01-30T10:47:53;101691.44;;;8.66;50.33
48964;BME280;34776;48.180;16.420;2024-01-30T10:50:19;101681.75;;;8.64;50.37
48964;BME280;34776;48.180;16.420;2024-01-30T10:52:45;101686.19;;;8.62;50.27
48964;BME280;34776;48.180;16.420;2024-01-30T10:55:12;101683.63;;;8.57;50.64
48964;BME280;34776;48.180;16.420;2024-01-30T10:57:39;101678.25;;;8.63;50.53
48964;BME280;34776;48.180;16.420;2024-01-30T11:00:09;101680.84;;;8.66;50.66
48964;BME280;34776;48.180;16.420;2024-01-30T11:02:40;101678.94;;;8.76;50.54
48964;BME280;34776;48.180;16.420;2024-01-30T11:05:06;101678.00;;;8.80;50.78
48964;BME280;34776;48.180;16.420;2024-01-30T11:07:31;101669.03;;;8.89;50.45
48964;BME280;34776;48.180;16.420;2024-01-30T11:12:23;101672.47;;;8.94;50.71
48964;BME280;34776;48.180;16.420;2024-01-30T11:14:49;101667.16;;;8.97;50.78
48964;BME280;34776;48.180;16.420;2024-01-30T11:17:15;101658.19;;;9.04;50.73
48964;BME280;34776;48.180;16.420;2024-01-30T11:19:41;101658.09;;;9.10;50.96
48964;BME280;34776;48.180;16.420;2024-01-30T11:22:07;101649.16;;;9.18;50.58
48964;BME280;34776;48.180;16.420;2024-01-30T11:24:40;101657.91;;;9.24;50.64
48964;BME280;34776;48.180;16.420;2024-01-30T11:27:08;101648.91;;;9.33;50.35
48964;BME280;34776;48.180;16.420;2024-01-30T11:29:35;101659.34;;;9.42;50.43
48964;BME280;34776;48.180;16.420;2024-01-30T11:32:01;101649.66;;;9.41;49.78
48964;BME280;34776;48.180;16.420;2024-01-30T11:34:27;101651.25;;;9.51;50.41
48964;BME280;34776;48.180;16.420;2024-01-30T11:36:58;101652.00;;;9.60;50.10
48964;BME280;34776;48.180;16.420;2024-01-30T11:39:25;101643.91;;;9.66;50.51
48964;BME280;34776;48.180;16.420;2024-01-30T11:41:51;101644.63;;;9.74;50.36
48964;BME280;34776;48.180;16.420;2024-01-30T11:44:19;101640.97;;;9.81;50.15
48964;BME280;34776;48.180;16.420;2024-01-30T11:46:47;101642.91;;;9.73;49.97
48964;BME280;34776;48.180;16.420;2024-01-30T11:49:13;101626.97;;;9.73;49.98
48964;BME280;34776;48.180;16.420;2024-01-30T11:51:38;101627.84;;;9.73;49.43
48964;BME280;34776;48.180;16.420;2024-01-30T11:54:03;101635.78;;;9.75;49.82
48964;BME280;34776;48.180;16.420;2024-01-30T11:56:29;101633.94;;;9.79;49.49
48964;BME280;34776;48.180;16.420;2024-01-30T11:58:55;101634.59;;;9.91;49.57
48964;BME280;34776;48.180;16.420;2024-01-30T12:01:21;101629.22;;;9.93;49.26
48964;BME280;34776;48.180;16.420;2024-01-30T12:03:51;101622.94;;;9.99;49.50
48964;BME280;34776;48.180;16.420;2024-01-30T12:06:18;101635.03;;;10.12;49.47
48964;BME280;34776;48.180;16.420;2024-01-30T12:08:59;101619.94;;;10.15;48.17
48964;BME280;34776;48.180;16.420;2024-01-30T12:11:29;101625.97;;;10.22;49.00
48964;BME280;34776;48.180;16.420;2024-01-30T12:13:55;101624.28;;;10.18;48.96
48964;BME280;34776;48.180;16.420;2024-01-30T12:16:21;101620.06;;;10.09;48.92
48964;BME280;34776;48.180;16.420;2024-01-30T12:18:46;101620.00;;;10.12;48.54
48964;BME280;34776;48.180;16.420;2024-01-30T12:21:12;101613.66;;;10.18;49.13
48964;BME280;34776;48.180;16.420;2024-01-30T12:23:37;101613.31;;;10.36;49.43
48964;BME280;34776;48.180;16.420;2024-01-30T12:26:03;101613.09;;;10.47;49.02
48964;BME280;34776;48.180;16.420;2024-01-30T12:28:32;101608.44;;;10.57;48.16
48964;BME280;34776;48.180;16.420;2024-01-30T12:31:04;101606.34;;;10.71;48.11
48964;BME280;34776;48.180;16.420;2024-01-30T12:33:30;101603.84;;;10.65;48.04
48964;BME280;34776;48.180;16.420;2024-01-30T12:35:56;101603.13;;;10.57;48.11
48964;BME280;34776;48.180;16.420;2024-01-30T12:38:24;101597.72;;;10.60;47.91
48964;BME280;34776;48.180;16.420;2024-01-30T12:40:54;101605.84;;;10.54;46.59
48964;BME280;34776;48.180;16.420;2024-01-30T12:43:26;101601.47;;;10.51;47.00
48964;BME280;34776;48.180;16.420;2024-01-30T12:45:54;101588.25;;;10.50;46.56
48964;BME280;34776;48.180;16.420;2024-01-30T12:48:20;101597.38;;;10.36;46.92
48964;BME280;34776;48.180;16.420;2024-01-30T12:50:45;101594.09;;;10.22;46.79